LFML 210130Z AUTO 32010KT CAVOK 16/13 Q1018 NOSIG LFML 210100Z AUTO 32010KT CAVOK 16/13 Q1019 NOSIG LFML 210030Z AUTO 33012KT 9999 FEW019 17/13 Q1018 NOSIG LFML 210000Z AUTO 33010KT CAVOK 17/12 Q1018 NOSIG LFML 202330Z AUTO 33012KT CAVOK 17/13 Q1018 NOSIG LFML 202300Z AUTO 32014KT CAVOK 18/12 Q1018 NOSIG LFML 202230Z AUTO 32014KT CAVOK 18/12 Q1018 NOSIG LFML 202200Z AUTO 33015KT CAVOK 18/12 Q1018 NOSIG LFML 202130Z AUTO 33015KT CAVOK 19/12 Q1018 NOSIG LFML 202100Z AUTO 31013KT 9999 FEW016 BKN240 19/12 Q1018 NOSIG LFML 202030Z AUTO 32016KT CAVOK 19/12 Q1018 NOSIG LFML 202000Z AUTO 32016KT CAVOK 19/12 Q1018 NOSIG LFML 201930Z AUTO 31015KT CAVOK 20/12 Q1017 NOSIG LFML 201900Z AUTO 32017KT CAVOK 20/12 Q1017 NOSIG LFML 201830Z AUTO 31014KT CAVOK 20/12 Q1016 NOSIG LFML 201800Z AUTO 32012KT CAVOK 21/12 Q1016 NOSIG LFML 201730Z AUTO 32013KT CAVOK 22/13 Q1016 NOSIG LFML 201700Z AUTO 31015KT CAVOK 22/12 Q1016 NOSIG LFML 201630Z AUTO 31015KT 9999 ///TCU 23/12 Q1015 BECMG NSC LFML 201600Z AUTO 29015KT 9999 BKN052 BKN062 24/12 Q1015 NOSIG LFML 201530Z AUTO 30014KT 9999 BKN052 24/13 Q1015 NOSIG LFML 201500Z AUTO 31015KT 9999 FEW052 24/11 Q1015 NOSIG LFML 201430Z AUTO 28012KT 9999 FEW050 24/13 Q1015 NOSIG LFML 201400Z AUTO 31016KT 9999 FEW048 24/12 Q1015 NOSIG LFML 201330Z AUTO 30017KT 9999 FEW050 24/12 Q1015 NOSIG LFML 201300Z AUTO 30015KT 9999 SCT046 SCT160 24/12 Q1015 NOSIG LFML 201230Z AUTO 30016KT 9999 BKN043 24/12 Q1016 NOSIG LFML 201200Z AUTO 29017KT 9999 BKN042 BKN150 BKN170 23/13 Q1016 NOSIG LFML 201130Z AUTO 29017KT 9999 FEW043 BKN140 BKN240 23/13 Q1016 NOSIG LFML 201100Z AUTO 29017KT CAVOK 22/13 Q1016 NOSIG LFML 201030Z AUTO 29016KT CAVOK 22/13 Q1016 NOSIG LFML 201000Z AUTO 29018KT CAVOK 21/11 Q1016 NOSIG LFML 200930Z AUTO 29019KT CAVOK 22/13 Q1016 NOSIG LFML 200900Z AUTO 30017KT CAVOK 21/13 Q1016 NOSIG LFML 200830Z AUTO 30017KT CAVOK 20/13 Q1016 NOSIG LFML 200800Z AUTO 30018KT CAVOK 19/13 Q1016 BECMG 32015G25KT LFML 200730Z AUTO 28014KT CAVOK 19/14 Q1016 BECMG 32015G25KT LFML 200700Z AUTO 28012KT CAVOK 18/14 Q1016 BECMG 32015G25KT LFML 200630Z AUTO 29013KT CAVOK 17/14 Q1016 BECMG 32015G25KT LFML 200600Z AUTO 29015KT CAVOK 17/14 Q1016 BECMG 32015G25KT LFML 200530Z AUTO 29013KT CAVOK 16/13 Q1016 BECMG 32015G25KT LFML 200500Z AUTO 29010KT CAVOK 16/13 Q1016 NOSIG LFML 200430Z AUTO 31006KT CAVOK 16/13 Q1015 NOSIG LFML 200400Z AUTO 33003KT CAVOK 16/12 Q1015 NOSIG LFML 200330Z AUTO 32004KT CAVOK 16/13 Q1015 NOSIG LFML 200300Z AUTO 31006KT CAVOK 16/12 Q1016 NOSIG LFML 200230Z AUTO 31007KT CAVOK 16/12 Q1016 NOSIG LFML 200200Z AUTO 31010KT CAVOK 16/12 Q1016 NOSIG LFML 200130Z AUTO 32012KT CAVOK 17/12 Q1016 NOSIG LFML 200100Z AUTO 31009KT CAVOK 17/12 Q1016 NOSIG LFML 200030Z AUTO 30008KT CAVOK 17/12 Q1016 NOSIG LFML 200000Z AUTO 30008KT CAVOK 17/12 Q1017 NOSIG LFML 192330Z AUTO 31010KT CAVOK 17/12 Q1017 NOSIG LFML 192300Z AUTO 31011KT CAVOK 17/12 Q1017 NOSIG LFML 192230Z AUTO 30011KT CAVOK 18/12 Q1016 NOSIG LFML 192200Z AUTO 31009KT CAVOK 18/11 Q1016 NOSIG LFML 192130Z AUTO 31008KT CAVOK 18/11 Q1016 NOSIG LFML 192100Z AUTO 32007KT CAVOK 19/11 Q1016 NOSIG LFML 192030Z AUTO 31008KT CAVOK 19/11 Q1016 NOSIG LFML 192000Z AUTO 31008KT CAVOK 19/10 Q1016 NOSIG LFML 191930Z AUTO 32009KT CAVOK 20/10 Q1016 NOSIG LFML 191900Z AUTO 32010KT 9999 FEW009 20/10 Q1015 TEMPO 31015G25KT LFML 191830Z AUTO 33011KT CAVOK 20/11 Q1015 TEMPO 31015G25KT LFML 191800Z AUTO 33012KT CAVOK 21/10 Q1015 TEMPO 31015G25KT LFML 191730Z AUTO 32013KT CAVOK 21/10 Q1015 TEMPO 31015G25KT LFML 191700Z AUTO 32014KT CAVOK 22/10 Q1015 TEMPO 31015G25KT LFML 191630Z AUTO 32014KT CAVOK 22/10 Q1015 TEMPO 31015G25KT LFML 191600Z AUTO 32015KT CAVOK 23/09 Q1015 TEMPO 31015G25KT LFML 191530Z AUTO 31016KT CAVOK 22/10 Q1014 TEMPO 31015G25KT LFML 191500Z AUTO 33016KT CAVOK 23/11 Q1014 TEMPO 31015G25KT LFML 191430Z AUTO 31016KT 270V350 CAVOK 23/10 Q1014 TEMPO 31015G25KT LFML 191400Z AUTO 29015KT CAVOK 24/10 Q1014 TEMPO 31015G25KT

METAR Messwerte

Zurück zur Übersicht

Ort
m ü. NN
Zeit Temperatur Taupunkt Rel.
Luftfeuchte
Luftdruck:
Altimeter
NN
Station
Wind in Beaufort
(Knoten)
Sichtweite
(Meter)
Wolken
(Meter über Grund)
Wettererscheinung
Marseille/Marignane
36
Di 21.09. 03:30161382 %1018
1018
1014
NW 3 (10)>= 10000Nicht signifikant 
Marseille/Marignane
36
Di 21.09. 03:00161382 %1019
1019
1015
NW 3 (10)>= 10000Nicht signifikant 
Marseille/Marignane
36
Di 21.09. 02:30171377 %1018
1018
1014
NNW 4 (12)>= 10000Leicht bewölkt (580) 
Marseille/Marignane
36
Di 21.09. 02:00171272 %1018
1018
1014
NNW 3 (10)>= 10000Nicht signifikant 
Marseille/Marignane
36
Di 21.09. 01:30171377 %1018
1018
1014
NNW 4 (12)>= 10000Nicht signifikant 
Marseille/Marignane
36
Di 21.09. 01:00181268 %1018
1018
1014
NW 4 (14)>= 10000Nicht signifikant 
Marseille/Marignane
36
Di 21.09. 00:30181268 %1018
1018
1014
NW 4 (14)>= 10000Nicht signifikant 
Marseille/Marignane
36
Di 21.09. 00:00181268 %1018
1018
1014
NNW 4 (15)>= 10000Nicht signifikant 
Marseille/Marignane
36
Mo 20.09. 23:30191264 %1018
1018
1014
NNW 4 (15)>= 10000Nicht signifikant 
Marseille/Marignane
36
Mo 20.09. 23:00191264 %1018
1018
1014
NW 4 (13)>= 10000Stark bewölkt (7300)
Leicht bewölkt (490)
 
Marseille/Marignane
36
Mo 20.09. 22:30191264 %1018
1018
1014
NW 5 (16)>= 10000Nicht signifikant 
Marseille/Marignane
36
Mo 20.09. 22:00191264 %1018
1018
1014
NW 5 (16)>= 10000Nicht signifikant 
Marseille/Marignane
36
Mo 20.09. 21:30201260 %1017
1017
1013
NW 4 (15)>= 10000Nicht signifikant 
Marseille/Marignane
36
Mo 20.09. 21:00201260 %1017
1017
1013
NW 5 (17)>= 10000Nicht signifikant 
Marseille/Marignane
36
Mo 20.09. 20:30201260 %1016
1016
1012
NW 4 (14)>= 10000Nicht signifikant 
Marseille/Marignane
36
Mo 20.09. 20:00211256 %1016
1016
1012
NW 4 (12)>= 10000Nicht signifikant 
Marseille/Marignane
36
Mo 20.09. 19:30221357 %1016
1016
1012
NW 4 (13)>= 10000Nicht signifikant 
Marseille/Marignane
36
Mo 20.09. 19:00221253 %1016
1016
1012
NW 4 (15)>= 10000Nicht signifikant 
Marseille/Marignane
36
Mo 20.09. 18:30231250 %1015
1015
1011
NW 4 (15)>= 10000  
Marseille/Marignane
36
Mo 20.09. 18:00241247 %1015
1015
1011
WNW 4 (15)>= 10000Stark bewölkt (1900)
Stark bewölkt (1600)
 
Marseille/Marignane
36
Mo 20.09. 17:30241350 %1015
1015
1011
WNW 4 (14)>= 10000Stark bewölkt (1600) 
Marseille/Marignane
36
Mo 20.09. 17:00241144 %1015
1015
1011
NW 4 (15)>= 10000Leicht bewölkt (1600) 
Marseille/Marignane
36
Mo 20.09. 16:30241350 %1015
1015
1011
W 4 (12)>= 10000Leicht bewölkt (1500) 
Marseille/Marignane
36
Mo 20.09. 16:00241247 %1015
1015
1011
NW 5 (16)>= 10000Leicht bewölkt (1500) 
Marseille/Marignane
36
Mo 20.09. 15:30241247 %1015
1015
1011
WNW 5 (17)>= 10000Leicht bewölkt (1500) 
Marseille/Marignane
36
Mo 20.09. 15:00241247 %1015
1015
1011
WNW 4 (15)>= 10000Wolkig (4900)
Wolkig (1400)
 
Marseille/Marignane
36
Mo 20.09. 14:30241247 %1016
1016
1012
WNW 5 (16)>= 10000Stark bewölkt (1300) 
Marseille/Marignane
36
Mo 20.09. 14:00231353 %1016
1016
1012
WNW 5 (17)>= 10000Stark bewölkt (5200)
Stark bewölkt (4600)
Stark bewölkt (1300)
 
Marseille/Marignane
36
Mo 20.09. 13:30231353 %1016
1016
1012
WNW 5 (17)>= 10000Stark bewölkt (7300)
Stark bewölkt (4300)
Leicht bewölkt (1300)
 
Marseille/Marignane
36
Mo 20.09. 13:00221357 %1016
1016
1012
WNW 5 (17)>= 10000Nicht signifikant 
Marseille/Marignane
36
Mo 20.09. 12:30221357 %1016
1016
1012
WNW 5 (16)>= 10000Nicht signifikant 
Marseille/Marignane
36
Mo 20.09. 12:00211153 %1016
1016
1012
WNW 5 (18)>= 10000Nicht signifikant 
Marseille/Marignane
36
Mo 20.09. 11:30221357 %1016
1016
1012
WNW 5 (19)>= 10000Nicht signifikant 
Marseille/Marignane
36
Mo 20.09. 11:00211360 %1016
1016
1012
WNW 5 (17)>= 10000Nicht signifikant 
Marseille/Marignane
36
Mo 20.09. 10:30201364 %1016
1016
1012
WNW 5 (17)>= 10000Nicht signifikant 
Marseille/Marignane
36
Mo 20.09. 10:00191368 %1016
1016
1012
WNW 5 (18)
Bald Übergang zu:
NW 4 (15) - 6 (25)
>= 10000Nicht signifikant 
Marseille/Marignane
36
Mo 20.09. 09:30191473 %1016
1016
1012
W 4 (14)
Bald Übergang zu:
NW 4 (15) - 6 (25)
>= 10000Nicht signifikant 
Marseille/Marignane
36
Mo 20.09. 09:00181477 %1016
1016
1012
W 4 (12)
Bald Übergang zu:
NW 4 (15) - 6 (25)
>= 10000Nicht signifikant 
Marseille/Marignane
36
Mo 20.09. 08:30171482 %1016
1016
1012
WNW 4 (13)
Bald Übergang zu:
NW 4 (15) - 6 (25)
>= 10000Nicht signifikant 
Marseille/Marignane
36
Mo 20.09. 08:00171482 %1016
1016
1012
WNW 4 (15)
Bald Übergang zu:
NW 4 (15) - 6 (25)
>= 10000Nicht signifikant 
Marseille/Marignane
36
Mo 20.09. 07:30161382 %1016
1016
1012
WNW 4 (13)
Bald Übergang zu:
NW 4 (15) - 6 (25)
>= 10000Nicht signifikant 
Marseille/Marignane
36
Mo 20.09. 07:00161382 %1016
1016
1012
WNW 3 (10)>= 10000Nicht signifikant 
Marseille/Marignane
36
Mo 20.09. 06:30161382 %1015
1015
1011
NW 2 (6)>= 10000Nicht signifikant 
Marseille/Marignane
36
Mo 20.09. 06:00161277 %1015
1015
1011
NNW 2 (3)>= 10000Nicht signifikant 
Marseille/Marignane
36
Mo 20.09. 05:30161382 %1015
1015
1011
NW 2 (4)>= 10000Nicht signifikant 
Marseille/Marignane
36
Mo 20.09. 05:00161277 %1016
1016
1012
NW 2 (6)>= 10000Nicht signifikant 
Marseille/Marignane
36
Mo 20.09. 04:30161277 %1016
1016
1012
NW 3 (7)>= 10000Nicht signifikant 
Marseille/Marignane
36
Mo 20.09. 04:00161277 %1016
1016
1012
NW 3 (10)>= 10000Nicht signifikant 
Marseille/Marignane
36
Mo 20.09. 03:30171272 %1016
1016
1012
NW 4 (12)>= 10000Nicht signifikant 
Marseille/Marignane
36
Mo 20.09. 03:00171272 %1016
1016
1012
NW 3 (9)>= 10000Nicht signifikant 
Marseille/Marignane
36
Mo 20.09. 02:30171272 %1016
1016
1012
WNW 3 (8)>= 10000Nicht signifikant 
Marseille/Marignane
36
Mo 20.09. 02:00171272 %1017
1017
1013
WNW 3 (8)>= 10000Nicht signifikant 
Marseille/Marignane
36
Mo 20.09. 01:30171272 %1017
1017
1013
NW 3 (10)>= 10000Nicht signifikant 
Marseille/Marignane
36
Mo 20.09. 01:00171272 %1017
1017
1013
NW 4 (11)>= 10000Nicht signifikant 
Marseille/Marignane
36
Mo 20.09. 00:30181268 %1016
1016
1012
WNW 4 (11)>= 10000Nicht signifikant 
Marseille/Marignane
36
Mo 20.09. 00:00181164 %1016
1016
1012
NW 3 (9)>= 10000Nicht signifikant 
Marseille/Marignane
36
So 19.09. 23:30181164 %1016
1016
1012
NW 3 (8)>= 10000Nicht signifikant 
Marseille/Marignane
36
So 19.09. 23:00191160 %1016
1016
1012
NW 3 (7)>= 10000Nicht signifikant 
Marseille/Marignane
36
So 19.09. 22:30191160 %1016
1016
1012
NW 3 (8)>= 10000Nicht signifikant 
Marseille/Marignane
36
So 19.09. 22:00191056 %1016
1016
1012
NW 3 (8)>= 10000Nicht signifikant 
Marseille/Marignane
36
So 19.09. 21:30201053 %1016
1016
1012
NW 3 (9)>= 10000Nicht signifikant 
Marseille/Marignane
36
So 19.09. 21:00201053 %1015
1015
1011
NW 3 (10)
Bald möglich:
NW 4 (15) - 6 (25)
>= 10000Leicht bewölkt (270) 
Marseille/Marignane
36
So 19.09. 20:30201156 %1015
1015
1011
NNW 4 (11)
Bald möglich:
NW 4 (15) - 6 (25)
>= 10000Nicht signifikant 
Marseille/Marignane
36
So 19.09. 20:00211049 %1015
1015
1011
NNW 4 (12)
Bald möglich:
NW 4 (15) - 6 (25)
>= 10000Nicht signifikant 
Marseille/Marignane
36
So 19.09. 19:30211049 %1015
1015
1011
NW 4 (13)
Bald möglich:
NW 4 (15) - 6 (25)
>= 10000Nicht signifikant 
Marseille/Marignane
36
So 19.09. 19:00221046 %1015
1015
1011
NW 4 (14)
Bald möglich:
NW 4 (15) - 6 (25)
>= 10000Nicht signifikant 
Marseille/Marignane
36
So 19.09. 18:30221046 %1015
1015
1011
NW 4 (14)
Bald möglich:
NW 4 (15) - 6 (25)
>= 10000Nicht signifikant 
Marseille/Marignane
36
So 19.09. 18:0023941 %1015
1015
1011
NW 4 (15)
Bald möglich:
NW 4 (15) - 6 (25)
>= 10000Nicht signifikant 
Marseille/Marignane
36
So 19.09. 17:30221046 %1014
1014
1010
NW 5 (16)
Bald möglich:
NW 4 (15) - 6 (25)
>= 10000Nicht signifikant 
Marseille/Marignane
36
So 19.09. 17:00231147 %1014
1014
1010
NNW 5 (16)
Bald möglich:
NW 4 (15) - 6 (25)
>= 10000Nicht signifikant 
Marseille/Marignane
36
So 19.09. 16:30231044 %1014
1014
1010
NW 5 (16)
W - N
Bald möglich:
NW 4 (15) - 6 (25)
>= 10000Nicht signifikant 
Marseille/Marignane
36
So 19.09. 16:00241041 %1014
1014
1010
WNW 4 (15)
Bald möglich:
NW 4 (15) - 6 (25)
>= 10000Nicht signifikant 

Altimeter: Einstellung am Altimeter (Höhenmesser), die Höhe 0 muss auf diesen Luftdruckwert zeigen, damit das Gerät die Stationshöhe richtig anzeigt.

NN: Luftdruck reduziert auf "Normal Null", auf Meereshöhe, dieser von der Temperatur abhängige Wert wird bisweilen unkorrekt einfach als "Luftdruck" bezeichnet. Eigentlich nur eine fiktive Größe, die es erlaubt, Stationen auf unterschiedlichen Höhen miteinander zu vergleichen.

Station: Realer Luftdruck an der Station.